sensor_id;sensor_type;location;lat;lon;timestamp;pressure;altitude;pressure_sealevel;temperature;humidity
69524;BME280;56723;42.694;23.286;2023-04-25T05:31:51;94194.28;;;9.52;100.00
69524;BME280;56723;42.694;23.286;2023-04-25T05:34:19;94199.28;;;9.53;100.00
69524;BME280;56723;42.694;23.286;2023-04-25T05:36:58;94203.13;;;9.57;100.00
69524;BME280;56723;42.694;23.286;2023-04-25T05:39:25;94193.84;;;9.63;100.00
69524;BME280;56723;42.694;23.286;2023-04-25T05:41:52;94194.53;;;9.71;100.00
69524;BME280;56723;42.694;23.286;2023-04-25T05:44:44;94195.63;;;9.77;100.00
69524;BME280;56723;42.694;23.286;2023-04-25T05:47:22;94200.25;;;9.82;100.00
69524;BME280;56723;42.694;23.286;2023-04-25T05:50:15;94197.13;;;9.86;100.00
69524;BME280;56723;42.694;23.286;2023-04-25T05:52:51;94202.19;;;9.94;100.00
69524;BME280;56723;42.694;23.286;2023-04-25T05:55:41;94198.09;;;10.00;100.00
69524;BME280;56723;42.694;23.286;2023-04-25T05:58:23;94199.31;;;10.04;100.00
69524;BME280;56723;42.694;23.286;2023-04-25T06:00:50;94200.66;;;10.15;100.00
69524;BME280;56723;42.694;23.286;2023-04-25T06:03:18;94194.16;;;10.19;100.00
69524;BME280;56723;42.694;23.286;2023-04-25T06:05:47;94185.56;;;10.18;100.00
69524;BME280;56723;42.694;23.286;2023-04-25T06:08:14;94194.91;;;10.34;100.00
69524;BME280;56723;42.694;23.286;2023-04-25T06:10:42;94197.81;;;10.46;100.00
69524;BME280;56723;42.694;23.286;2023-04-25T06:19:40;94201.56;;;10.43;100.00
69524;BME280;56723;42.694;23.286;2023-04-25T06:22:08;94210.13;;;10.44;100.00
69524;BME280;56723;42.694;23.286;2023-04-25T06:24:38;94187.41;;;10.39;100.00
69524;BME280;56723;42.694;23.286;2023-04-25T06:27:05;94202.53;;;10.42;100.00
69524;BME280;56723;42.694;23.286;2023-04-25T06:29:33;94210.94;;;10.44;100.00
69524;BME280;56723;42.694;23.286;2023-04-25T06:32:00;94200.22;;;10.47;100.00
69524;BME280;56723;42.694;23.286;2023-04-25T06:34:28;94203.88;;;10.53;100.00
69524;BME280;56723;42.694;23.286;2023-04-25T06:36:55;94215.59;;;10.70;100.00
69524;BME280;56723;42.694;23.286;2023-04-25T06:39:22;94217.47;;;10.83;100.00
69524;BME280;56723;42.694;23.286;2023-04-25T06:41:51;94214.16;;;10.89;100.00
69524;BME280;56723;42.694;23.286;2023-04-25T06:44:39;94213.03;;;10.98;100.00
69524;BME280;56723;42.694;23.286;2023-04-25T06:47:08;94210.31;;;11.06;100.00
69524;BME280;56723;42.694;23.286;2023-04-25T06:49:35;94215.34;;;11.14;100.00
69524;BME280;56723;42.694;23.286;2023-04-25T06:52:02;94215.22;;;11.22;100.00
69524;BME280;56723;42.694;23.286;2023-04-25T06:54:29;94212.50;;;11.30;100.00
69524;BME280;56723;42.694;23.286;2023-04-25T06:57:14;94205.53;;;11.37;100.00
69524;BME280;56723;42.694;23.286;2023-04-25T06:59:42;94215.78;;;11.45;100.00
69524;BME280;56723;42.694;23.286;2023-04-25T07:02:09;94220.59;;;11.49;100.00
69524;BME280;56723;42.694;23.286;2023-04-25T07:04:38;94211.41;;;11.53;100.00
69524;BME280;56723;42.694;23.286;2023-04-25T07:07:05;94207.66;;;11.55;100.00
69524;BME280;56723;42.694;23.286;2023-04-25T07:09:43;94215.06;;;11.58;100.00
69524;BME280;56723;42.694;23.286;2023-04-25T07:12:10;94211.91;;;11.69;100.00
69524;BME280;56723;42.694;23.286;2023-04-25T07:14:37;94208.31;;;11.64;100.00
69524;BME280;56723;42.694;23.286;2023-04-25T07:17:05;94211.91;;;11.63;100.00
69524;BME280;56723;42.694;23.286;2023-04-25T07:19:34;94212.88;;;11.62;100.00
69524;BME280;56723;42.694;23.286;2023-04-25T07:22:01;94221.25;;;11.57;100.00
69524;BME280;56723;42.694;23.286;2023-04-25T07:24:30;94210.28;;;11.62;100.00
69524;BME280;56723;42.694;23.286;2023-04-25T07:26:58;94215.31;;;11.70;100.00
69524;BME280;56723;42.694;23.286;2023-04-25T07:29:48;94205.84;;;11.84;100.00
69524;BME280;56723;42.694;23.286;2023-04-25T07:32:15;94204.88;;;11.91;100.00
69524;BME280;56723;42.694;23.286;2023-04-25T07:34:42;94196.31;;;11.97;100.00
69524;BME280;56723;42.694;23.286;2023-04-25T07:37:09;94200.56;;;12.11;100.00
69524;BME280;56723;42.694;23.286;2023-04-25T07:39:48;94188.63;;;12.24;100.00
69524;BME280;56723;42.694;23.286;2023-04-25T07:42:15;94185.88;;;12.38;95.92
69524;BME280;56723;42.694;23.286;2023-04-25T07:44:43;94194.31;;;12.54;96.33
69524;BME280;56723;42.694;23.286;2023-04-25T07:47:12;94191.50;;;12.62;95.64
69524;BME280;56723;42.694;23.286;2023-04-25T07:49:41;94185.72;;;12.66;95.71
69524;BME280;56723;42.694;23.286;2023-04-25T07:52:12;94185.53;;;12.74;95.64
69524;BME280;56723;42.694;23.286;2023-04-25T07:54:45;94177.16;;;12.79;94.99
69524;BME280;56723;42.694;23.286;2023-04-25T07:57:18;94178.75;;;12.87;93.43
69524;BME280;56723;42.694;23.286;2023-04-25T07:59:47;94174.56;;;12.92;91.41
69524;BME280;56723;42.694;23.286;2023-04-25T08:02:16;94175.13;;;13.01;90.12
69524;BME280;56723;42.694;23.286;2023-04-25T08:04:44;94178.75;;;13.13;89.57
69524;BME280;56723;42.694;23.286;2023-04-25T08:07:15;94178.75;;;13.20;87.14
69524;BME280;56723;42.694;23.286;2023-04-25T08:09:52;94164.75;;;13.27;85.47
69524;BME280;56723;42.694;23.286;2023-04-25T08:12:29;94174.94;;;13.48;85.67
69524;BME280;56723;42.694;23.286;2023-04-25T08:14:57;94172.91;;;13.57;84.62
69524;BME280;56723;42.694;23.286;2023-04-25T08:17:29;94161.69;;;13.63;84.03
69524;BME280;56723;42.694;23.286;2023-04-25T08:19:56;94165.84;;;13.77;82.50
69524;BME280;56723;42.694;23.286;2023-04-25T08:22:29;94172.22;;;13.88;83.53
69524;BME280;56723;42.694;23.286;2023-04-25T08:25:17;94166.63;;;13.91;75.07
69524;BME280;56723;42.694;23.286;2023-04-25T08:27:45;94168.16;;;14.05;79.70
69524;BME280;56723;42.694;23.286;2023-04-25T08:30:12;94169.91;;;14.11;77.76
69524;BME280;56723;42.694;23.286;2023-04-25T08:32:41;94177.13;;;14.16;71.96
69524;BME280;56723;42.694;23.286;2023-04-25T08:35:36;94170.50;;;14.13;73.16
69524;BME280;56723;42.694;23.286;2023-04-25T08:38:03;94178.09;;;14.21;75.93
69524;BME280;56723;42.694;23.286;2023-04-25T08:40:35;94182.13;;;14.17;81.24
69524;BME280;56723;42.694;23.286;2023-04-25T08:43:14;94169.56;;;14.01;84.08
69524;BME280;56723;42.694;23.286;2023-04-25T08:45:43;94178.19;;;14.02;87.57
69524;BME280;56723;42.694;23.286;2023-04-25T08:48:17;94172.56;;;13.98;81.42
69524;BME280;56723;42.694;23.286;2023-04-25T08:50:55;94166.78;;;13.96;83.42
69524;BME280;56723;42.694;23.286;2023-04-25T08:53:26;94163.88;;;14.17;80.80
69524;BME280;56723;42.694;23.286;2023-04-25T08:56:01;94153.94;;;14.39;79.57
69524;BME280;56723;42.694;23.286;2023-04-25T08:58:33;94145.53;;;14.44;76.61
69524;BME280;56723;42.694;23.286;2023-04-25T09:01:01;94148.28;;;14.49;76.41
69524;BME280;56723;42.694;23.286;2023-04-25T09:03:33;94133.50;;;14.43;75.43
69524;BME280;56723;42.694;23.286;2023-04-25T09:06:00;94141.06;;;14.51;75.91
69524;BME280;56723;42.694;23.286;2023-04-25T09:08:27;94145.44;;;14.57;77.42
69524;BME280;56723;42.694;23.286;2023-04-25T09:10:55;94143.81;;;14.63;77.16
69524;BME280;56723;42.694;23.286;2023-04-25T09:13:26;94135.25;;;14.80;76.15
69524;BME280;56723;42.694;23.286;2023-04-25T09:16:18;94146.06;;;15.09;74.26
69524;BME280;56723;42.694;23.286;2023-04-25T09:19:22;94137.88;;;15.23;73.17
69524;BME280;56723;42.694;23.286;2023-04-25T09:22:06;94143.47;;;15.27;72.67
69524;BME280;56723;42.694;23.286;2023-04-25T09:27:07;94134.06;;;15.26;72.95
69524;BME280;56723;42.694;23.286;2023-04-25T09:29:37;94123.94;;;15.36;71.90
69524;BME280;56723;42.694;23.286;2023-04-25T09:32:22;94118.41;;;15.26;67.09
69524;BME280;56723;42.694;23.286;2023-04-25T09:34:54;94124.22;;;15.46;52.60
69524;BME280;56723;42.694;23.286;2023-04-25T09:37:29;94134.28;;;15.68;50.20
69524;BME280;56723;42.694;23.286;2023-04-25T09:40:18;94132.09;;;15.65;49.07
69524;BME280;56723;42.694;23.286;2023-04-25T09:42:59;94127.28;;;15.98;50.06
69524;BME280;56723;42.694;23.286;2023-04-25T09:45:29;94120.84;;;16.31;46.87
69524;BME280;56723;42.694;23.286;2023-04-25T09:48:03;94115.22;;;16.45;60.01
69524;BME280;56723;42.694;23.286;2023-04-25T09:50:36;94130.09;;;16.45;66.18
69524;BME280;56723;42.694;23.286;2023-04-25T09:53:08;94127.50;;;16.45;68.18
69524;BME280;56723;42.694;23.286;2023-04-25T09:56:04;94121.03;;;16.47;65.79
69524;BME280;56723;42.694;23.286;2023-04-25T09:58:32;94117.44;;;16.72;64.50
69524;BME280;56723;42.694;23.286;2023-04-25T10:01:02;94111.69;;;16.81;63.56
69524;BME280;56723;42.694;23.286;2023-04-25T10:03:39;94133.91;;;17.02;64.49
69524;BME280;56723;42.694;23.286;2023-04-25T10:06:25;94124.91;;;17.10;58.52
69524;BME280;56723;42.694;23.286;2023-04-25T10:08:54;94127.19;;;17.18;60.51
69524;BME280;56723;42.694;23.286;2023-04-25T10:11:24;94114.53;;;16.91;58.67
69524;BME280;56723;42.694;23.286;2023-04-25T10:13:52;94130.66;;;16.65;59.63
69524;BME280;56723;42.694;23.286;2023-04-25T10:16:20;94149.63;;;16.12;56.74
69524;BME280;56723;42.694;23.286;2023-04-25T10:18:48;94136.16;;;15.79;52.33
69524;BME280;56723;42.694;23.286;2023-04-25T10:21:15;94137.56;;;15.38;52.78
69524;BME280;56723;42.694;23.286;2023-04-25T10:23:43;94132.41;;;15.75;50.44
69524;BME280;56723;42.694;23.286;2023-04-25T10:26:11;94121.00;;;16.17;48.34
69524;BME280;56723;42.694;23.286;2023-04-25T10:31:23;94114.97;;;16.65;46.81
69524;BME280;56723;42.694;23.286;2023-04-25T10:33:50;94121.22;;;16.64;45.91
69524;BME280;56723;42.694;23.286;2023-04-25T10:36:19;94143.13;;;15.85;52.03
69524;BME280;56723;42.694;23.286;2023-04-25T10:38:49;94137.06;;;15.05;58.94
69524;BME280;56723;42.694;23.286;2023-04-25T10:41:20;94136.34;;;14.66;64.44
69524;BME280;56723;42.694;23.286;2023-04-25T10:43:49;94124.22;;;14.53;63.82
69524;BME280;56723;42.694;23.286;2023-04-25T10:46:31;94130.59;;;14.58;65.19
69524;BME280;56723;42.694;23.286;2023-04-25T10:49:03;94121.81;;;14.83;64.42
69524;BME280;56723;42.694;23.286;2023-04-25T10:51:40;94098.72;;;15.05;61.90
69524;BME280;56723;42.694;23.286;2023-04-25T10:54:22;94110.50;;;15.57;60.80
69524;BME280;56723;42.694;23.286;2023-04-25T10:56:51;94113.09;;;15.94;55.20
69524;BME280;56723;42.694;23.286;2023-04-25T10:59:19;94102.28;;;16.20;51.88
69524;BME280;56723;42.694;23.286;2023-04-25T11:01:56;94110.53;;;16.66;48.99
69524;BME280;56723;42.694;23.286;2023-04-25T11:04:31;94105.56;;;16.87;47.33
69524;BME280;56723;42.694;23.286;2023-04-25T11:09:34;94090.06;;;17.33;45.90
69524;BME280;56723;42.694;23.286;2023-04-25T11:12:02;94102.47;;;17.60;46.26
69524;BME280;56723;42.694;23.286;2023-04-25T11:14:29;94090.97;;;17.73;42.76
69524;BME280;56723;42.694;23.286;2023-04-25T11:16:57;94087.53;;;17.61;42.95
69524;BME280;56723;42.694;23.286;2023-04-25T11:19:48;94100.53;;;17.44;43.24
69524;BME280;56723;42.694;23.286;2023-04-25T11:22:15;94099.41;;;17.17;43.53
69524;BME280;56723;42.694;23.286;2023-04-25T11:24:42;94111.91;;;16.68;45.34
69524;BME280;56723;42.694;23.286;2023-04-25T11:27:09;94101.41;;;16.38;46.78
69524;BME280;56723;42.694;23.286;2023-04-25T11:29:37;94096.47;;;16.18;47.36
69524;BME280;56723;42.694;23.286;2023-04-25T11:32:04;94097.88;;;16.03;48.04
69524;BME280;56723;42.694;23.286;2023-04-25T11:34:32;94112.94;;;15.89;48.86
69524;BME280;56723;42.694;23.286;2023-04-25T11:37:00;94122.78;;;15.50;49.39
69524;BME280;56723;42.694;23.286;2023-04-25T11:39:29;94123.75;;;15.13;52.84
69524;BME280;56723;42.694;23.286;2023-04-25T11:41:56;94123.31;;;14.66;52.76
69524;BME280;56723;42.694;23.286;2023-04-25T11:44:23;94136.38;;;14.28;59.21
69524;BME280;56723;42.694;23.286;2023-04-25T11:46:50;94141.06;;;13.62;66.32
69524;BME280;56723;42.694;23.286;2023-04-25T11:49:17;94120.94;;;13.11;70.25
69524;BME280;56723;42.694;23.286;2023-04-25T11:51:46;94113.16;;;12.78;76.07
69524;BME280;56723;42.694;23.286;2023-04-25T11:54:14;94121.94;;;12.97;79.16
69524;BME280;56723;42.694;23.286;2023-04-25T11:56:42;94103.53;;;13.18;76.67
69524;BME280;56723;42.694;23.286;2023-04-25T11:59:09;94110.22;;;13.59;76.99
69524;BME280;56723;42.694;23.286;2023-04-25T12:01:39;94101.91;;;13.88;72.95
69524;BME280;56723;42.694;23.286;2023-04-25T12:04:12;94101.63;;;14.09;70.78
69524;BME280;56723;42.694;23.286;2023-04-25T12:06:41;94103.25;;;14.42;65.56
69524;BME280;56723;42.694;23.286;2023-04-25T12:09:12;94097.03;;;14.43;64.83
69524;BME280;56723;42.694;23.286;2023-04-25T12:11:52;94094.00;;;14.08;64.51
69524;BME280;56723;42.694;23.286;2023-04-25T12:14:24;94096.41;;;14.09;66.99
69524;BME280;56723;42.694;23.286;2023-04-25T12:16:58;94095.72;;;14.20;64.28
69524;BME280;56723;42.694;23.286;2023-04-25T12:19:32;94098.25;;;14.34;64.35
69524;BME280;56723;42.694;23.286;2023-04-25T12:22:03;94089.09;;;14.56;65.70
69524;BME280;56723;42.694;23.286;2023-04-25T12:24:33;94099.44;;;14.69;62.63
69524;BME280;56723;42.694;23.286;2023-04-25T12:27:05;94130.19;;;14.85;61.69
69524;BME280;56723;42.694;23.286;2023-04-25T12:29:34;94137.06;;;14.48;65.57
69524;BME280;56723;42.694;23.286;2023-04-25T12:32:15;94149.38;;;13.90;72.27
69524;BME280;56723;42.694;23.286;2023-04-25T12:34:42;94145.53;;;13.35;80.31
69524;BME280;56723;42.694;23.286;2023-04-25T12:37:10;94165.34;;;12.90;84.47
69524;BME280;56723;42.694;23.286;2023-04-25T12:39:37;94160.69;;;12.39;87.02
69524;BME280;56723;42.694;23.286;2023-04-25T12:42:04;94162.84;;;12.16;89.58
69524;BME280;56723;42.694;23.286;2023-04-25T12:44:35;94168.16;;;11.94;91.63
69524;BME280;56723;42.694;23.286;2023-04-25T12:47:02;94172.91;;;11.84;92.67
69524;BME280;56723;42.694;23.286;2023-04-25T12:49:30;94174.00;;;11.68;93.28
69524;BME280;56723;42.694;23.286;2023-04-25T12:51:57;94167.78;;;11.63;94.07
69524;BME280;56723;42.694;23.286;2023-04-25T12:54:24;94170.38;;;11.69;95.26
69524;BME280;56723;42.694;23.286;2023-04-25T13:51:22;94157.81;;;10.12;100.00
69524;BME280;56723;42.694;23.286;2023-04-25T13:53:49;94152.72;;;10.04;100.00
69524;BME280;56723;42.694;23.286;2023-04-25T13:56:17;94135.66;;;10.10;100.00
69524;BME280;56723;42.694;23.286;2023-04-25T13:58:46;94142.00;;;10.22;100.00
69524;BME280;56723;42.694;23.286;2023-04-25T14:01:13;94138.13;;;10.32;100.00
69524;BME280;56723;42.694;23.286;2023-04-25T14:03:40;94139.75;;;10.61;100.00
69524;BME280;56723;42.694;23.286;2023-04-25T14:06:08;94141.50;;;10.75;100.00
69524;BME280;56723;42.694;23.286;2023-04-25T14:08:35;94132.94;;;10.75;100.00
69524;BME280;56723;42.694;23.286;2023-04-25T14:11:02;94127.66;;;10.96;100.00
69524;BME280;56723;42.694;23.286;2023-04-25T14:13:30;94122.25;;;11.19;100.00
69524;BME280;56723;42.694;23.286;2023-04-25T14:15:57;94129.56;;;11.43;100.00
69524;BME280;56723;42.694;23.286;2023-04-25T14:18:24;94126.06;;;11.64;100.00
69524;BME280;56723;42.694;23.286;2023-04-25T14:20:51;94126.88;;;11.71;97.30
69524;BME280;56723;42.694;23.286;2023-04-25T14:23:18;94122.50;;;11.72;94.69
69524;BME280;56723;42.694;23.286;2023-04-25T14:25:45;94120.63;;;11.87;95.30
69524;BME280;56723;42.694;23.286;2023-04-25T14:28:12;94116.66;;;12.04;100.00
69524;BME280;56723;42.694;23.286;2023-04-25T14:30:39;94126.09;;;12.19;93.51
69524;BME280;56723;42.694;23.286;2023-04-25T14:33:06;94116.31;;;12.34;94.29
69524;BME280;56723;42.694;23.286;2023-04-25T14:35:33;94115.16;;;12.43;93.30
69524;BME280;56723;42.694;23.286;2023-04-25T14:38:00;94120.34;;;12.43;90.76
69524;BME280;56723;42.694;23.286;2023-04-25T14:40:27;94108.34;;;12.48;91.14
69524;BME280;56723;42.694;23.286;2023-04-25T14:42:54;94112.75;;;12.74;92.28
69524;BME280;56723;42.694;23.286;2023-04-25T14:45:21;94104.16;;;12.87;93.56
69524;BME280;56723;42.694;23.286;2023-04-25T14:47:49;94109.13;;;13.02;92.65
69524;BME280;56723;42.694;23.286;2023-04-25T14:50:16;94110.31;;;13.06;93.26
69524;BME280;56723;42.694;23.286;2023-04-25T14:52:43;94105.53;;;13.09;93.07
69524;BME280;56723;42.694;23.286;2023-04-25T14:55:11;94111.94;;;13.07;92.95
69524;BME280;56723;42.694;23.286;2023-04-25T14:57:38;94099.13;;;13.12;92.37
69524;BME280;56723;42.694;23.286;2023-04-25T15:00:06;94101.13;;;13.23;90.84
69524;BME280;56723;42.694;23.286;2023-04-25T15:02:36;94087.72;;;13.33;85.65
69524;BME280;56723;42.694;23.286;2023-04-25T15:05:04;94090.66;;;13.43;86.39
69524;BME280;56723;42.694;23.286;2023-04-25T15:07:31;94083.84;;;13.48;86.22
69524;BME280;56723;42.694;23.286;2023-04-25T15:09:58;94078.41;;;13.57;87.76
69524;BME280;56723;42.694;23.286;2023-04-25T15:12:25;94084.38;;;13.64;89.32
69524;BME280;56723;42.694;23.286;2023-04-25T15:14:55;94077.38;;;13.64;90.28
69524;BME280;56723;42.694;23.286;2023-04-25T15:17:28;94063.38;;;13.59;92.73
69524;BME280;56723;42.694;23.286;2023-04-25T15:19:57;94072.03;;;13.52;90.62
69524;BME280;56723;42.694;23.286;2023-04-25T15:22:24;94072.25;;;13.44;94.47
69524;BME280;56723;42.694;23.286;2023-04-25T15:24:52;94063.09;;;13.35;92.74
69524;BME280;56723;42.694;23.286;2023-04-25T15:27:19;94064.69;;;13.30;93.80
69524;BME280;56723;42.694;23.286;2023-04-25T15:29:48;94064.69;;;13.23;92.52
69524;BME280;56723;42.694;23.286;2023-04-25T15:32:15;94049.88;;;13.24;91.72
69524;BME280;56723;42.694;23.286;2023-04-25T15:34:42;94050.28;;;13.27;91.55
69524;BME280;56723;42.694;23.286;2023-04-25T15:37:09;94054.28;;;13.23;88.76
69524;BME280;56723;42.694;23.286;2023-04-25T15:39:37;94065.53;;;13.17;88.08
69524;BME280;56723;42.694;23.286;2023-04-25T15:42:04;94053.31;;;13.11;86.99
69524;BME280;56723;42.694;23.286;2023-04-25T15:44:31;94061.72;;;13.06;87.98
69524;BME280;56723;42.694;23.286;2023-04-25T15:51:19;94051.53;;;12.98;89.80
69524;BME280;56723;42.694;23.286;2023-04-25T15:53:47;94055.34;;;12.89;92.25
69524;BME280;56723;42.694;23.286;2023-04-25T16:14:54;94074.38;;;11.63;93.55
69524;BME280;56723;42.694;23.286;2023-04-25T16:17:21;94070.72;;;11.44;91.97
69524;BME280;56723;42.694;23.286;2023-04-25T16:19:48;94078.22;;;11.32;89.46
